createdAt,value
2022-12-19T00:00:32.769Z,21.92
2022-12-19T00:03:00.756Z,20.48
2022-12-19T00:05:28.946Z,20.00
2022-12-19T00:07:57.176Z,21.52
2022-12-19T00:10:26.896Z,20.80
2022-12-19T00:12:54.840Z,20.58
2022-12-19T00:15:22.838Z,22.00
2022-12-19T00:17:52.169Z,22.25
2022-12-19T00:20:20.035Z,20.27
2022-12-19T00:22:48.091Z,22.50
2022-12-19T00:25:23.138Z,20.38
2022-12-19T00:27:51.445Z,15.25
2022-12-19T00:30:19.385Z,22.17
2022-12-19T00:32:47.708Z,21.55
2022-12-19T00:35:17.543Z,21.50
2022-12-19T00:37:49.684Z,21.85
2022-12-19T00:40:18.537Z,21.45
2022-12-19T00:42:53.165Z,22.50
2022-12-19T00:45:21.620Z,22.85
2022-12-19T00:47:49.470Z,21.45
2022-12-19T00:50:18.787Z,21.45
2022-12-19T00:52:46.712Z,21.90
2022-12-19T00:55:19.403Z,22.20
2022-12-19T00:57:47.994Z,22.15
2022-12-19T01:00:17.950Z,22.92
2022-12-19T01:02:46.589Z,21.90
2022-12-19T01:05:14.722Z,22.88
2022-12-19T01:07:44.051Z,23.55
2022-12-19T01:10:12.052Z,22.00
2022-12-19T01:12:47.772Z,21.33
2022-12-19T01:15:21.285Z,22.15
2022-12-19T01:20:21.354Z,21.05
2022-12-19T01:23:00.465Z,20.77
2022-12-19T01:25:28.780Z,21.65
2022-12-19T01:27:57.773Z,21.13
2022-12-19T01:30:26.361Z,22.75
2022-12-19T01:32:57.618Z,20.35
2022-12-19T01:35:28.017Z,21.77
2022-12-19T01:38:08.207Z,22.15
2022-12-19T01:40:38.515Z,21.52
2022-12-19T01:43:07.770Z,21.25
2022-12-19T01:45:43.648Z,20.13
2022-12-19T01:48:18.592Z,20.92
2022-12-19T01:51:00.613Z,21.55
2022-12-19T01:53:36.654Z,22.08
2022-12-19T01:56:17.324Z,21.60
2022-12-19T01:58:47.050Z,20.08
2022-12-19T02:01:17.297Z,21.55
2022-12-19T02:03:46.820Z,23.17
2022-12-19T02:06:15.700Z,22.63
2022-12-19T02:08:47.169Z,21.88
2022-12-19T02:11:16.416Z,22.70
2022-12-19T02:13:44.889Z,22.80
2022-12-19T02:16:25.186Z,22.13
2022-12-19T02:19:05.481Z,21.38
2022-12-19T02:21:43.773Z,22.42
2022-12-19T02:24:44.334Z,23.08
2022-12-19T02:27:40.206Z,22.58
2022-12-19T05:49:16.952Z,32.00
2022-12-19T05:51:50.391Z,31.23
2022-12-19T05:54:19.011Z,29.60
2022-12-19T05:56:47.053Z,29.25
2022-12-19T05:59:15.139Z,30.17
2022-12-19T06:01:43.210Z,29.88
2022-12-19T06:04:11.456Z,27.02
2022-12-19T06:06:40.839Z,27.98
2022-12-19T06:09:09.021Z,26.15
2022-12-19T06:11:36.924Z,27.48
2022-12-19T06:14:08.516Z,25.50
2022-12-19T06:16:36.626Z,23.65
2022-12-19T06:19:04.584Z,23.77
2022-12-19T06:21:32.546Z,23.27
2022-12-19T06:24:02.261Z,23.55
2022-12-19T06:26:31.166Z,22.33
2022-12-19T06:28:59.158Z,23.80
2022-12-19T06:31:27.216Z,23.83
2022-12-19T06:33:56.832Z,24.00
2022-12-19T06:36:26.475Z,24.42
2022-12-19T06:38:57.714Z,22.92
2022-12-19T06:41:45.835Z,23.58
2022-12-19T06:44:15.964Z,21.52
2022-12-19T06:46:44.967Z,22.42
2022-12-19T06:49:13.505Z,20.85
2022-12-19T06:51:41.554Z,21.42
2022-12-19T06:54:10.979Z,21.52
2022-12-19T06:56:41.687Z,21.08
2022-12-19T06:59:13.477Z,19.42
2022-12-19T07:01:53.569Z,18.80
2022-12-19T07:04:26.293Z,18.25
2022-12-19T07:06:54.435Z,17.37
2022-12-19T07:09:22.803Z,17.73
2022-12-19T07:11:52.136Z,17.20
2022-12-19T07:14:20.163Z,17.17
2022-12-19T07:16:50.406Z,16.35
2022-12-19T07:19:18.998Z,17.30
2022-12-19T07:21:46.998Z,16.67
2022-12-19T07:24:16.146Z,17.58
2022-12-19T07:26:45.350Z,17.55
2022-12-19T07:29:15.614Z,17.50
2022-12-19T07:31:44.009Z,16.17
2022-12-19T07:34:12.021Z,16.95
2022-12-19T07:36:40.064Z,17.17
2022-12-19T07:39:08.028Z,16.45
2022-12-19T07:41:38.094Z,16.45
2022-12-19T07:44:06.645Z,16.05
2022-12-19T07:46:36.308Z,15.73
2022-12-19T07:49:04.532Z,16.50
2022-12-19T07:51:32.400Z,16.10
2022-12-19T07:54:00.440Z,16.85
2022-12-19T07:56:28.935Z,16.27
2022-12-19T07:58:57.080Z,16.55
2022-12-19T08:01:28.168Z,17.23
2022-12-19T08:03:59.042Z,16.48
2022-12-19T08:06:27.464Z,16.48
2022-12-19T08:08:56.100Z,16.67
2022-12-19T08:11:27.739Z,15.93
2022-12-19T08:13:56.618Z,15.98
2022-12-19T08:16:26.960Z,16.83
2022-12-19T08:18:55.891Z,16.92
2022-12-19T08:21:26.025Z,17.30
2022-12-19T08:23:54.171Z,15.27
2022-12-19T08:26:25.663Z,17.23
2022-12-19T08:28:54.689Z,16.80
2022-12-19T08:31:25.098Z,15.27
2022-12-19T08:33:54.080Z,15.65
2022-12-19T08:36:23.228Z,15.48
2022-12-19T08:38:53.137Z,16.48
2022-12-19T08:41:21.457Z,16.17
2022-12-19T08:43:51.255Z,16.13
2022-12-19T08:46:19.486Z,15.32
2022-12-19T08:48:47.816Z,16.33
2022-12-19T08:51:17.007Z,15.27
2022-12-19T08:53:46.443Z,14.23
2022-12-19T08:56:18.437Z,15.07
2022-12-19T08:58:47.085Z,15.18
2022-12-19T09:01:19.346Z,15.75
2022-12-19T09:04:27.928Z,15.30
2022-12-19T09:06:36.819Z,15.95
2022-12-19T09:09:05.883Z,15.82
2022-12-19T09:11:39.193Z,16.48
2022-12-19T09:14:21.065Z,16.80
2022-12-19T09:19:18.347Z,16.70
2022-12-19T09:21:46.428Z,17.25
2022-12-19T09:24:14.663Z,17.27
2022-12-19T09:26:44.891Z,18.02
2022-12-19T09:29:19.610Z,16.23
2022-12-19T09:31:51.175Z,17.98
2022-12-19T09:34:29.983Z,17.08
2022-12-19T09:37:07.382Z,17.63
2022-12-19T09:39:36.174Z,18.27
2022-12-19T09:42:44.227Z,18.95
2022-12-19T09:45:31.926Z,16.95
2022-12-19T09:48:01.907Z,18.42
2022-12-19T09:50:44.852Z,18.10
2022-12-19T09:53:20.247Z,18.60
2022-12-19T09:55:49.622Z,18.88
2022-12-19T09:58:32.006Z,19.27
2022-12-19T10:01:07.442Z,17.33
2022-12-19T10:03:40.207Z,18.85
2022-12-19T10:07:11.271Z,20.00
2022-12-19T10:10:16.537Z,18.00
2022-12-19T10:12:38.589Z,18.77
2022-12-19T10:15:07.684Z,18.15
2022-12-19T10:17:51.913Z,18.15
2022-12-19T10:20:28.163Z,18.35
2022-12-19T10:23:07.223Z,19.17
2022-12-19T10:25:51.856Z,18.58
2022-12-19T10:28:42.034Z,18.63
2022-12-19T10:31:22.384Z,19.25
2022-12-19T10:33:58.372Z,17.63
2022-12-19T10:37:03.988Z,17.58
2022-12-19T10:39:25.280Z,18.27
2022-12-19T10:41:58.212Z,17.98
2022-12-19T10:44:29.461Z,18.30
2022-12-19T10:46:58.973Z,18.75
2022-12-19T10:49:28.449Z,17.85
2022-12-19T10:52:01.405Z,18.73
2022-12-19T10:54:41.035Z,18.73
2022-12-19T10:57:26.139Z,18.75
2022-12-19T11:00:01.735Z,18.48
2022-12-19T11:02:44.597Z,16.55
2022-12-19T11:05:26.565Z,17.80
2022-12-19T11:08:18.660Z,19.13
2022-12-19T11:12:35.788Z,17.73
2022-12-19T11:19:22.143Z,16.20
2022-12-19T11:23:51.989Z,15.85
2022-12-19T11:29:17.531Z,16.05
2022-12-19T11:29:43.287Z,16.58
2022-12-19T11:30:25.889Z,15.65
2022-12-19T11:30:37.986Z,16.30
2022-12-19T11:34:03.085Z,14.48
2022-12-19T11:36:39.046Z,14.65
2022-12-19T11:39:16.743Z,16.05
2022-12-19T11:41:51.966Z,15.13
2022-12-19T11:44:30.187Z,15.73
2022-12-19T11:47:06.856Z,14.18
2022-12-19T11:49:41.556Z,14.73
2022-12-19T11:53:02.195Z,14.15
2022-12-19T11:55:18.883Z,14.60
2022-12-19T11:57:47.652Z,13.80
2022-12-19T12:00:20.435Z,13.27
2022-12-19T12:03:08.941Z,14.23
2022-12-19T12:05:47.120Z,12.88
2022-12-19T12:12:33.463Z,13.70
2022-12-19T12:17:28.995Z,14.38
2022-12-19T12:18:49.170Z,12.55
2022-12-19T12:27:47.379Z,12.98
2022-12-19T12:31:40.036Z,12.77
2022-12-19T12:31:49.890Z,11.50
2022-12-19T12:31:51.877Z,12.15
2022-12-19T12:31:57.584Z,10.95
2022-12-19T12:35:33.637Z,12.57
2022-12-19T12:38:36.268Z,11.60
2022-12-19T12:43:54.942Z,11.05
2022-12-19T12:46:28.333Z,11.45
2022-12-19T12:49:02.986Z,13.07
2022-12-19T12:51:33.279Z,11.57
2022-12-19T12:54:07.481Z,12.13
2022-12-19T12:56:36.503Z,13.38
2022-12-19T12:59:19.946Z,11.77
2022-12-19T13:01:52.118Z,12.40
2022-12-19T13:04:27.426Z,11.27
2022-12-19T13:07:19.950Z,11.63
2022-12-19T13:09:55.617Z,11.60
2022-12-19T13:12:45.664Z,11.50
2022-12-19T13:15:39.772Z,11.27
2022-12-19T13:20:48.027Z,10.35
2022-12-19T13:25:55.050Z,11.07
2022-12-19T13:28:41.674Z,10.43
2022-12-19T13:31:22.968Z,9.38
2022-12-19T13:34:20.246Z,9.80
2022-12-19T13:39:48.862Z,9.88
2022-12-19T13:40:08.790Z,9.50
2022-12-19T13:45:49.084Z,9.43
2022-12-19T13:48:25.650Z,10.60
2022-12-19T13:50:54.461Z,10.75
2022-12-19T13:53:24.949Z,10.50
2022-12-19T13:55:56.017Z,9.32
2022-12-19T13:58:29.865Z,11.00
2022-12-19T14:01:04.749Z,10.20
2022-12-19T14:03:39.722Z,10.73
2022-12-19T14:06:19.737Z,10.23
2022-12-19T14:08:59.288Z,10.50
2022-12-19T14:13:38.401Z,11.07
2022-12-19T14:15:12.181Z,10.90
2022-12-19T14:17:38.438Z,12.93
2022-12-19T14:22:01.715Z,12.00
2022-12-19T14:23:11.675Z,12.52
2022-12-19T14:28:21.682Z,12.35
2022-12-19T14:28:41.598Z,11.50
2022-12-19T14:31:15.006Z,11.70
2022-12-19T14:36:34.251Z,11.50
2022-12-19T14:39:25.134Z,12.00
2022-12-19T14:42:19.242Z,11.35
2022-12-19T14:52:51.858Z,11.07
2022-12-19T14:54:16.119Z,10.45
2022-12-19T14:54:25.524Z,10.02
2022-12-19T14:54:37.843Z,10.73
2022-12-19T14:59:02.759Z,10.05
2022-12-19T15:01:33.712Z,9.25
2022-12-19T15:04:50.875Z,9.55
2022-12-19T15:07:09.586Z,8.77
2022-12-19T15:11:06.501Z,8.80
2022-12-19T15:14:48.944Z,8.60
2022-12-19T15:16:03.388Z,8.88
2022-12-19T15:18:40.366Z,8.35
2022-12-19T15:21:13.515Z,8.85
2022-12-19T15:23:42.200Z,9.55
2022-12-19T15:26:15.694Z,8.18
2022-12-19T15:28:47.893Z,8.65
2022-12-19T15:31:26.892Z,8.20
2022-12-19T15:36:47.546Z,9.27
2022-12-19T15:39:16.100Z,7.82
2022-12-19T15:41:46.291Z,8.27
2022-12-19T15:44:20.300Z,8.43
2022-12-19T15:46:50.012Z,7.30
2022-12-19T15:49:20.594Z,7.47
2022-12-19T15:51:51.417Z,7.97
2022-12-19T15:57:18.381Z,7.45
2022-12-19T15:59:47.050Z,8.07
2022-12-19T16:02:24.207Z,7.88
2022-12-19T16:04:59.757Z,7.80
2022-12-19T16:07:35.421Z,7.60
2022-12-19T16:10:05.416Z,8.10
2022-12-19T16:12:38.041Z,8.38
2022-12-19T16:15:08.759Z,9.07
2022-12-19T16:17:37.008Z,9.70
2022-12-19T16:20:15.388Z,9.07
2022-12-19T16:22:44.884Z,8.50
2022-12-19T16:25:13.841Z,10.30
2022-12-19T16:27:43.159Z,9.73
2022-12-19T16:30:20.175Z,10.18
2022-12-19T16:32:48.390Z,11.25
2022-12-19T16:35:34.377Z,11.18
2022-12-19T16:38:09.327Z,10.77
2022-12-19T16:40:37.686Z,11.45
2022-12-19T16:43:07.630Z,10.18
2022-12-19T16:45:35.893Z,10.88
2022-12-19T16:48:03.859Z,10.82
2022-12-19T16:50:32.955Z,11.65
2022-12-19T16:53:00.859Z,12.07
2022-12-19T16:55:30.155Z,11.10
2022-12-19T16:57:59.045Z,12.05
2022-12-19T17:00:27.630Z,10.40
2022-12-19T17:03:01.383Z,11.32
2022-12-19T17:05:31.668Z,11.10
2022-12-19T17:08:00.718Z,10.80
2022-12-19T17:10:32.665Z,10.82
2022-12-19T17:13:03.668Z,11.02
2022-12-19T17:15:35.376Z,10.30
2022-12-19T17:18:05.693Z,9.95
2022-12-19T17:20:39.660Z,10.75
2022-12-19T17:23:15.919Z,11.38
2022-12-19T17:25:45.783Z,10.73
2022-12-19T17:28:14.204Z,9.77
2022-12-19T17:30:45.402Z,10.27
2022-12-19T17:33:15.464Z,11.80
2022-12-19T17:35:46.345Z,11.10
2022-12-19T17:38:17.485Z,10.40
2022-12-19T17:40:47.055Z,9.88
2022-12-19T17:43:15.205Z,9.93
2022-12-19T17:45:43.410Z,10.30
2022-12-19T17:48:20.567Z,9.25
2022-12-19T17:50:48.609Z,9.85
2022-12-19T17:53:17.243Z,10.07
2022-12-19T17:56:37.418Z,9.52
2022-12-19T17:59:09.247Z,9.48
2022-12-19T18:01:41.630Z,8.77
2022-12-19T18:04:14.713Z,8.10
2022-12-19T18:06:43.317Z,9.18
2022-12-19T18:09:19.426Z,11.55
2022-12-19T18:11:48.092Z,14.25
2022-12-19T18:14:18.164Z,12.30
2022-12-19T18:16:47.255Z,11.05
2022-12-19T18:19:19.089Z,8.57
2022-12-19T18:21:47.506Z,9.57
2022-12-19T18:24:16.375Z,9.13
2022-12-19T18:26:44.723Z,9.35
2022-12-19T18:29:13.226Z,9.30
2022-12-19T18:31:50.022Z,9.45
2022-12-19T18:34:21.649Z,8.43
2022-12-19T18:36:49.930Z,8.50
2022-12-19T18:39:21.634Z,8.77
2022-12-19T18:41:50.304Z,8.63
2022-12-19T18:44:18.732Z,9.63
2022-12-19T18:46:50.124Z,10.60
2022-12-19T18:49:18.535Z,8.57
2022-12-19T18:51:46.784Z,9.13
2022-12-19T18:54:17.162Z,9.90
2022-12-19T18:56:45.537Z,9.25
2022-12-19T18:59:14.307Z,8.80
2022-12-19T19:01:44.426Z,9.13
2022-12-19T19:04:17.510Z,8.18
2022-12-19T19:06:50.864Z,9.52
2022-12-19T19:09:21.450Z,10.00
2022-12-19T19:12:08.027Z,9.15
2022-12-19T19:14:36.131Z,9.98
2022-12-19T19:17:05.729Z,9.75
2022-12-19T19:19:35.038Z,9.50
2022-12-19T19:22:03.003Z,9.95
2022-12-19T19:24:31.232Z,9.35
2022-12-19T19:26:59.144Z,8.82
2022-12-19T19:29:27.092Z,8.88
2022-12-19T19:31:54.992Z,9.68
2022-12-19T19:34:27.991Z,10.32
2022-12-19T19:36:59.859Z,8.98
2022-12-19T19:39:28.556Z,9.73
2022-12-19T19:41:57.127Z,8.35
2022-12-19T19:44:25.058Z,8.95
2022-12-19T19:46:52.961Z,9.82
2022-12-19T19:49:22.302Z,8.90
2022-12-19T19:51:50.493Z,8.40
2022-12-19T19:54:19.846Z,8.93
2022-12-19T19:56:47.868Z,8.45
2022-12-19T19:59:16.148Z,8.82
2022-12-19T20:01:45.017Z,8.35
2022-12-19T20:04:13.361Z,8.82
2022-12-19T20:06:41.272Z,8.43
2022-12-19T20:09:09.423Z,8.32
2022-12-19T20:11:38.791Z,8.85
2022-12-19T20:14:06.824Z,7.95
2022-12-19T20:16:34.804Z,8.50
2022-12-19T20:19:02.878Z,8.93
2022-12-19T20:21:30.925Z,8.13
2022-12-19T20:23:58.830Z,7.80
2022-12-19T20:26:26.827Z,7.75
2022-12-19T20:28:56.129Z,8.07
2022-12-19T20:31:25.177Z,8.13
2022-12-19T20:33:56.979Z,8.18
2022-12-19T20:36:26.166Z,7.22
2022-12-19T20:38:54.264Z,7.95
2022-12-19T20:41:22.449Z,8.00
2022-12-19T20:43:52.438Z,6.63
2022-12-19T20:46:23.625Z,6.97
2022-12-19T20:48:52.687Z,7.15
2022-12-19T20:51:22.653Z,7.45
2022-12-19T20:53:53.525Z,7.50
2022-12-19T20:56:23.323Z,6.53
2022-12-19T20:58:51.703Z,6.97
2022-12-19T21:01:23.485Z,7.13
2022-12-19T21:03:52.579Z,6.35
2022-12-19T21:06:25.456Z,6.22
2022-12-19T21:08:53.859Z,5.90
2022-12-19T21:11:22.593Z,6.97
2022-12-19T21:13:50.596Z,6.57
2022-12-19T21:16:21.948Z,5.93
2022-12-19T21:18:51.657Z,6.65
2022-12-19T21:21:22.316Z,5.85
2022-12-19T21:23:51.048Z,7.13
2022-12-19T21:26:19.863Z,6.20
2022-12-19T21:28:48.215Z,5.47
2022-12-19T21:31:18.304Z,5.70
2022-12-19T21:33:47.877Z,6.03
2022-12-19T21:36:19.176Z,6.82
2022-12-19T21:38:47.631Z,6.38
2022-12-19T21:41:20.739Z,6.28
2022-12-19T21:43:52.538Z,5.70
2022-12-19T21:46:23.555Z,5.68
2022-12-19T21:48:54.873Z,5.25
2022-12-19T21:51:25.623Z,5.60
2022-12-19T21:53:55.866Z,6.47
2022-12-19T21:56:26.170Z,5.60
2022-12-19T21:58:55.678Z,5.90
2022-12-19T22:01:24.658Z,6.57
2022-12-19T22:03:54.834Z,6.30
2022-12-19T22:06:28.442Z,5.45
2022-12-19T22:08:57.668Z,6.03
2022-12-19T22:11:26.185Z,4.85
2022-12-19T22:13:54.820Z,5.43
2022-12-19T22:16:23.052Z,5.18
2022-12-19T22:18:53.071Z,5.75
2022-12-19T22:21:22.702Z,5.20
2022-12-19T22:23:50.868Z,5.05
2022-12-19T22:26:21.844Z,4.68
2022-12-19T22:28:52.509Z,5.15
2022-12-19T22:31:23.611Z,5.28
2022-12-19T22:33:54.926Z,4.53
2022-12-19T22:36:28.279Z,4.75
2022-12-19T22:38:57.987Z,4.35
2022-12-19T22:41:26.832Z,4.32
2022-12-19T22:43:55.358Z,4.53
2022-12-19T22:46:26.212Z,4.65
2022-12-19T22:48:56.432Z,4.60
2022-12-19T22:51:26.929Z,4.35
2022-12-19T22:53:55.554Z,4.50
2022-12-19T22:56:26.237Z,5.50
2022-12-19T22:58:57.609Z,4.13
2022-12-19T23:01:29.137Z,4.22
2022-12-19T23:04:01.981Z,4.00
2022-12-19T23:06:33.754Z,4.18
2022-12-19T23:09:03.372Z,4.38
2022-12-19T23:11:34.841Z,5.60
2022-12-19T23:14:04.007Z,3.78
2022-12-19T23:16:32.110Z,5.10
2022-12-19T23:19:00.125Z,4.47
2022-12-19T23:21:28.937Z,4.03
2022-12-19T23:23:58.601Z,4.60
2022-12-19T23:26:28.967Z,4.35
2022-12-19T23:28:58.972Z,3.72
2022-12-19T23:31:28.662Z,8.00
2022-12-19T23:33:57.390Z,4.35
2022-12-19T23:37:08.194Z,4.22
2022-12-19T23:39:18.392Z,4.00
2022-12-19T23:41:46.283Z,4.55
2022-12-19T23:44:14.356Z,4.35
2022-12-19T23:46:42.678Z,4.15
2022-12-19T23:49:10.838Z,4.50
2022-12-19T23:51:38.812Z,4.88
2022-12-19T23:54:08.901Z,4.68
2022-12-19T23:56:41.492Z,4.50
2022-12-19T23:59:12.087Z,5.30
